Nearby METAR Reports

 

KSJC - San Jose, California, USA
Distance from station: NØ 14km
Opdateret: 13/12/2019 11:53
Mist, Overskyet
Mist, Overskyet
 Vind retning calm
Vind: Vindstille
Temperatur: 14°C
Dugpunkt: 14°C
Fugtighed: 100%
Barometer: 1024 hPa
Oversigt: Mist
Clouds: Overskyet
Visibility: 2.4 km
Cloud details: Overskyet 91 m
2019/12/13 10:53 KSJC 131053Z AUTO 00000KT 1 1/2SM BR OVC003 14/14 A3024 RMK AO2 SLP238 T01440139 $
KNUQ - Moffett Nas/Mtn, California, USA
Distance from station: N 14km
Opdateret: 21/11/2019 17:56
NOT Current

 
Barometer: 1011.2 hPa
2019/11/21 16:56 KNUQ 211656Z AUTO A2986 RMK AO2 SLP116 PWINO $
 
KPAO - Palo Alto, California, USA
Distance from station: NNV 23km
Opdateret: 13/12/2019 05:47
NOT Current
Mest skyet
Mest skyet
 Vind retning calm
Vind: Vindstille
Temperatur: 15°C
Dugpunkt: 14°C
Fugtighed: 94%
Barometer: 1025.4 hPa
Clouds: Mest skyet
Visibility: 16 km
Cloud details: Mest skyet 305 m
2019/12/13 04:47 KPAO 130447Z 00000KT 10SM BKN010 15/14 A3028 RMK LAST GPS N/A AT NIGHT.
KRHV - San Jose/Reid, California, USA
Distance from station: ØNØ 19km
Opdateret: 13/12/2019 06:47
NOT Current
Overskyet
Overskyet
 Vind retning calm
Vind: Vindstille
Temperatur: 16°C
Dugpunkt: 14°C
Fugtighed: 88%
Barometer: 1025.1 hPa
Clouds: Overskyet
Visibility: 11 km
Cloud details: Overskyet 335 m
2019/12/13 05:47 KRHV 130547Z 00000KT 7SM OVC011 16/14 A3027 RMK LAST
 
KOAK - Oakland, California, USA
Distance from station: NNV 50km
Opdateret: 13/12/2019 11:53
Mist, Overskyet
Mist, Overskyet
 Vind retning calm
Vind: Vindstille
Temperatur: 14°C
Dugpunkt: 13°C
Fugtighed: 94%
Barometer: 1024 hPa
Oversigt: Mist
Clouds: Overskyet
Visibility: 1.2 km
Cloud details: Overskyet 91 m
2019/12/13 10:53 KOAK 131053Z 00000KT 3/4SM BR OVC003 14/13 A3024 RMK AO2 SFC VIS 3 SLP241 T01390128
KSQL - San Carlos Airpo, California, USA
Distance from station: NV 34km
Opdateret: 13/12/2019 11:55
Mist, Overskyet
Mist, Overskyet
 Vind retning calm
Vind: Vindstille
Temperatur: 13°C
Dugpunkt: 13°C
Fugtighed: 100%
Barometer: 1024.4 hPa
Oversigt: Mist
Clouds: Overskyet
Visibility: 4 km
Cloud details: Overskyet 122 m
2019/12/13 10:55 KSQL 131055Z AUTO 00000KT 2 1/2SM BR OVC004 13/13 A3025 RMK AO2
 
KSFO - San Francisco, California, USA
Distance from station: NV 49km
Opdateret: 13/12/2019 11:56
Fog, Overskyet
Fog, Overskyet
 Vind retning calm
Vind: Vindstille
Temperatur: 13°C
Dugpunkt: 12°C
Fugtighed: 94%
Barometer: 1023.7 hPa
Oversigt: Fog
Clouds: Overskyet
Visibility: 0.4 km
Cloud details: Overskyet 91 m
2019/12/13 10:56 KSFO 131056Z 00000KT 1/4SM R28R/P6000FT FG VV003 13/12 A3023 RMK AO2 SLP237 T01330117
KE16 - San Martin, California, USA
Distance from station: ØSØ 43km
Opdateret: 14/11/2019 10:35
NOT Current
Overskyet
Overskyet
 Vind retning SØ
Vind: SØ 11 km/h
Temperatur: 12°C
Dugpunkt: 10°C
Fugtighed: 88%
Barometer: 1017.6 hPa
Clouds: Overskyet
Visibility: 16 km
Cloud details: Overskyet 427 m
2019/11/14 09:35 KE16 140935Z AUTO 13006KT 10SM OVC014 12/10 A3005 RMK AO2
 
KWVI - Watsonville, California, USA
Distance from station: SSØ 44km
Opdateret: 13/12/2019 11:53
Fog, Overskyet
Fog, Overskyet
 Vind retning calm
Vind: Vindstille
Temperatur: 13°C
Dugpunkt: 13°C
Fugtighed: 100%
Barometer: 1024.4 hPa
Oversigt: Fog
Clouds: Overskyet
Visibility: 0.4 km
Cloud details: Overskyet 61 m
2019/12/13 10:53 KWVI 131053Z AUTO 00000KT 1/4SM FG VV002 13/13 A3025 RMK AO2 SLP242 T01330133
KHAF - Half Moon Bay, California, USA
Distance from station: VNV 50km
Opdateret: 13/12/2019 11:55
Fog, Overskyet
Fog, Overskyet
 Vind retning calm
Vind: Vindstille
Temperatur: 12°C
Dugpunkt: 12°C
Fugtighed: 100%
Barometer: 1024 hPa
Oversigt: Fog
Clouds: Overskyet
Visibility: 0.4 km
Cloud details: Overskyet 61 m
2019/12/13 10:55 KHAF 131055Z AUTO 00000KT M1/4SM FG OVC002 12/12 A3024 RMK AO2
 
KHWD - Hayward, California, USA
Distance from station: N 44km
Opdateret: 13/12/2019 11:54
Mist, Overskyet
Mist, Overskyet
 Vind retning calm
Vind: Vindstille
Temperatur: 13°C
Dugpunkt: 13°C
Fugtighed: 100%
Barometer: 1024 hPa
Oversigt: Mist
Clouds: Overskyet
Visibility: 6 km
Cloud details: Overskyet 91 m
2019/12/13 10:54 KHWD 131054Z AUTO 00000KT 4SM BR OVC003 13/13 A3024 RMK AO2 SLP249 T01330128
KLVK - Livermore, California, USA
Distance from station: NNØ 51km
Opdateret: 13/12/2019 11:53
Mist, Overskyet
Mist, Overskyet
 Vind retning calm
Vind: Vindstille
Temperatur: 14°C
Dugpunkt: 13°C
Fugtighed: 94%
Barometer: 1023.7 hPa
Oversigt: Mist
Clouds: Overskyet
Visibility: 5 km
Cloud details: Overskyet 152 m
2019/12/13 10:53 KLVK 131053Z AUTO 00000KT 3SM BR OVC005 14/13 A3023 RMK AO2 SLP233 T01390133